createdAt,value
2022-09-13T10:58:57.762Z,686.25
2022-09-13T10:59:57.672Z,691.88
2022-09-13T11:00:57.724Z,708.75
2022-09-13T11:01:57.645Z,714.38
2022-09-13T11:02:57.620Z,731.25
2022-09-13T11:03:57.651Z,736.88
2022-09-13T11:04:57.606Z,748.13
2022-09-13T11:05:57.593Z,753.75
2022-09-13T11:07:01.670Z,765.00
2022-09-13T11:07:57.560Z,770.63
2022-09-13T11:08:57.544Z,776.25
2022-09-13T11:09:57.542Z,787.50
2022-09-13T11:10:57.544Z,793.13
2022-09-13T11:11:57.508Z,798.75
2022-09-13T11:12:57.496Z,804.38
2022-09-13T11:13:57.496Z,810.00
2022-09-13T11:14:57.470Z,810.00
2022-09-13T11:15:57.479Z,821.25
2022-09-13T11:16:57.492Z,826.88
2022-09-13T11:17:57.435Z,832.50
2022-09-13T11:18:57.422Z,832.50
2022-09-13T11:19:57.545Z,838.13
2022-09-13T11:20:57.406Z,832.50
2022-09-13T11:21:57.397Z,826.88
2022-09-13T11:22:57.375Z,815.63
2022-09-13T11:23:57.374Z,804.38
2022-09-13T11:24:57.358Z,804.38
2022-09-13T11:25:57.360Z,793.13
2022-09-13T11:26:57.329Z,776.25
2022-09-13T11:27:57.331Z,770.63
2022-09-13T11:28:57.337Z,765.00
2022-09-13T11:29:57.299Z,765.00
2022-09-13T11:30:57.368Z,787.50
2022-09-13T11:31:57.352Z,787.50
2022-09-13T11:32:57.271Z,793.13
2022-09-13T11:33:57.265Z,821.25
2022-09-13T11:34:57.237Z,849.38
2022-09-13T11:35:57.252Z,888.75
2022-09-13T11:36:57.222Z,984.38
2022-09-13T11:37:57.214Z,1406.25
2022-09-13T11:38:57.193Z,2131.88
2022-09-13T11:39:57.263Z,2610.00
2022-09-13T11:40:57.191Z,2655.00
2022-09-13T11:41:57.851Z,2868.75
2022-09-13T11:42:57.151Z,2660.63
2022-09-13T11:43:57.139Z,2716.88
2022-09-13T11:44:57.138Z,2553.75
2022-09-13T11:45:57.216Z,2244.38
2022-09-13T11:46:57.107Z,1749.38
2022-09-13T11:47:57.110Z,2205.00
2022-09-13T11:48:57.094Z,3003.75
2022-09-13T11:49:57.087Z,1316.25
2022-09-13T11:50:57.090Z,1068.75
2022-09-13T11:51:57.066Z,2593.13
2022-09-13T11:52:57.067Z,1501.88
2022-09-13T11:53:57.042Z,810.00
2022-09-13T11:54:57.025Z,1310.63
2022-09-13T11:55:57.029Z,1023.75
2022-09-13T11:56:57.022Z,3358.13
2022-09-13T11:57:57.007Z,3330.00
2022-09-13T11:58:56.983Z,2559.38
2022-09-13T11:59:56.987Z,3015.00
2022-09-13T12:00:56.971Z,3414.38
2022-09-13T12:01:57.016Z,3301.88
2022-09-13T12:02:57.257Z,3234.38
2022-09-13T12:03:56.933Z,3217.50
2022-09-13T12:05:20.493Z,1440.00
2022-09-13T12:05:56.933Z,961.88
2022-09-13T12:06:56.900Z,1738.13
2022-09-13T12:07:56.903Z,1293.75
2022-09-13T12:08:56.893Z,2930.63
2022-09-13T12:09:56.874Z,3206.25
2022-09-13T12:10:56.875Z,3358.13
2022-09-13T12:11:56.853Z,1282.50
2022-09-13T12:12:56.841Z,815.63
2022-09-13T12:13:56.859Z,1282.50
2022-09-13T12:14:56.829Z,978.75
2022-09-13T12:15:56.863Z,1091.25
2022-09-13T12:16:56.817Z,1046.25
2022-09-13T12:17:56.790Z,2508.75
2022-09-13T12:18:56.790Z,2013.75
2022-09-13T12:19:56.785Z,1783.13
2022-09-13T12:20:56.782Z,1811.25
2022-09-13T12:21:56.762Z,2176.88
2022-09-13T12:22:56.741Z,1704.38
2022-09-13T12:23:56.741Z,1895.63
2022-09-13T12:24:56.722Z,2137.50
2022-09-13T12:25:56.725Z,2255.63
2022-09-13T12:26:56.711Z,2615.63
2022-09-13T12:27:56.693Z,2812.50
2022-09-13T12:28:56.692Z,2857.50
2022-09-13T12:29:56.675Z,2430.00
2022-09-13T12:30:56.686Z,1935.00
2022-09-13T12:31:56.670Z,1411.88
2022-09-13T12:32:58.993Z,1856.25
2022-09-13T12:33:56.652Z,1963.13
2022-09-13T12:34:56.941Z,2092.50
2022-09-13T12:35:56.627Z,1963.13
2022-09-13T12:36:56.619Z,2368.13
2022-09-13T12:37:56.606Z,2261.25
2022-09-13T12:38:56.598Z,2047.50
2022-09-13T12:39:56.634Z,1822.50
2022-09-13T12:40:56.578Z,1546.88
2022-09-13T12:41:56.573Z,1186.88
2022-09-13T12:42:56.555Z,1276.88
2022-09-13T12:43:56.556Z,1434.38
2022-09-13T12:44:56.533Z,1777.50
2022-09-13T12:45:56.661Z,1828.13
2022-09-13T12:46:56.528Z,2053.13
2022-09-13T12:47:56.518Z,2272.50
2022-09-13T12:48:56.497Z,1569.38
2022-09-13T12:49:58.890Z,2064.38
2022-09-13T12:50:56.487Z,2053.13
2022-09-13T12:51:56.493Z,2351.25
2022-09-13T12:52:56.464Z,2508.75
2022-09-13T12:53:56.453Z,1901.25
2022-09-13T12:54:56.451Z,1901.25
2022-09-13T12:56:04.397Z,2536.88
2022-09-13T12:56:57.267Z,1580.63
2022-09-13T12:57:56.423Z,2311.88
2022-09-13T12:58:56.409Z,1153.13
2022-09-13T12:59:56.398Z,1816.88
2022-09-13T13:00:56.479Z,1136.25
2022-09-13T13:01:56.537Z,1850.63
2022-09-13T13:02:56.388Z,1631.25
2022-09-13T13:03:56.373Z,1811.25
2022-09-13T13:04:56.377Z,1845.00
2022-09-13T13:05:56.372Z,1625.63
2022-09-13T13:06:56.366Z,2604.38
2022-09-13T13:07:56.347Z,1996.88
2022-09-13T13:08:56.339Z,1805.63
2022-09-13T13:09:56.344Z,2131.88
2022-09-13T13:10:56.332Z,2036.25
2022-09-13T13:11:56.330Z,2739.38
2022-09-13T13:12:56.329Z,2536.88
2022-09-13T13:13:56.316Z,2430.00
2022-09-13T13:14:56.297Z,2823.75
2022-09-13T13:15:56.315Z,1552.50
2022-09-13T13:16:56.303Z,1434.38
2022-09-13T13:17:56.281Z,1243.13
2022-09-13T13:18:56.271Z,1800.00
2022-09-13T13:19:56.256Z,1490.63
2022-09-13T13:20:56.256Z,1698.75
2022-09-13T13:21:56.240Z,1186.88
2022-09-13T13:22:56.248Z,1175.63
2022-09-13T13:23:56.234Z,1091.25
2022-09-13T13:24:56.219Z,798.75
2022-09-13T13:27:41.151Z,736.88
2022-09-13T13:28:39.819Z,1158.75
2022-09-13T13:29:39.796Z,1755.00
2022-09-13T13:30:39.785Z,1372.50
2022-09-13T13:31:39.857Z,1153.13
2022-09-13T13:32:39.791Z,1305.00
2022-09-13T13:33:39.759Z,669.38
2022-09-13T13:34:39.753Z,1023.75
2022-09-13T13:35:39.739Z,1170.00
2022-09-13T13:36:39.738Z,1338.75
2022-09-13T13:37:39.739Z,1366.88
2022-09-13T13:38:39.732Z,1299.38
2022-09-13T13:39:39.721Z,1366.88
2022-09-13T13:40:47.517Z,1575.00
2022-09-13T13:41:39.702Z,1631.25
2022-09-13T13:42:39.708Z,1625.63
2022-09-13T13:43:39.691Z,2193.75
2022-09-13T13:44:39.676Z,2323.13
2022-09-13T13:45:39.678Z,1068.75
2022-09-13T13:46:39.652Z,1023.75
2022-09-13T13:47:39.656Z,916.88
2022-09-13T13:48:39.641Z,1130.63
2022-09-13T13:49:39.624Z,1260.00
2022-09-13T13:50:39.907Z,1063.13
2022-09-13T13:51:39.608Z,973.13
2022-09-13T13:52:39.623Z,939.38
2022-09-13T13:53:39.600Z,984.38
2022-09-13T13:54:39.585Z,1153.13
2022-09-13T13:55:39.576Z,1164.38
2022-09-13T13:56:39.576Z,1316.25
2022-09-13T13:57:39.569Z,1372.50
2022-09-13T13:58:39.553Z,1198.13
2022-09-13T13:59:39.549Z,1321.88
2022-09-13T14:00:39.603Z,1575.00
2022-09-13T14:01:39.522Z,1923.75
2022-09-13T14:02:39.530Z,2255.63
2022-09-13T14:03:39.535Z,1248.75
2022-09-13T14:04:39.568Z,1749.38
2022-09-13T14:05:39.498Z,1906.88
2022-09-13T14:06:39.498Z,1563.75
2022-09-13T14:07:39.482Z,1845.00
2022-09-13T14:08:39.481Z,2593.13
2022-09-13T14:09:39.468Z,1749.38
2022-09-13T14:10:39.520Z,1490.63
2022-09-13T14:11:39.444Z,1524.38
2022-09-13T14:12:39.446Z,1389.38
2022-09-13T14:13:39.442Z,1451.25
2022-09-13T14:14:39.438Z,1423.13
2022-09-13T14:15:39.410Z,1243.13
2022-09-13T14:16:39.483Z,1389.38
2022-09-13T14:17:39.393Z,1355.63
2022-09-13T14:18:39.430Z,1395.00
2022-09-13T14:19:39.388Z,1293.75
2022-09-13T14:20:39.375Z,1305.00
2022-09-13T14:21:39.362Z,1276.88
2022-09-13T14:22:39.356Z,1338.75
2022-09-13T14:23:39.369Z,1181.25
2022-09-13T14:24:39.354Z,1220.63
2022-09-13T14:25:39.334Z,1344.38
2022-09-13T14:26:39.334Z,793.13
2022-09-13T14:27:39.328Z,759.38
2022-09-13T14:31:23.772Z,759.38
2022-09-13T14:32:23.687Z,753.75
2022-09-13T14:33:23.680Z,1181.25
2022-09-13T14:34:23.673Z,961.88
2022-09-13T14:35:23.662Z,793.13
2022-09-13T14:36:23.658Z,877.50
2022-09-13T14:37:23.637Z,1147.50
2022-09-13T14:38:23.642Z,1310.63
2022-09-13T14:39:23.631Z,1321.88
2022-09-13T14:40:23.698Z,860.63
2022-09-13T14:41:23.614Z,725.63
